SABE/AEP METAR and TAF weather

Enter ICAO airport designator
Station Type Date Time Source
SABE METAR 2019/04/20 22:00 UTC NOAA

SABE 202200Z 11007KT CAVOK 18/13 Q1015 NOSIG


Station Type Date Time Source
SABE Decoded METAR 2019/04/20 22:00 UTC NOAA

Aeroparque Bs. As. Aerodrome, Argentina (SABE) 34-34S 058-25W 6M
Apr 20, 2019 - 06:00 PM EDT / 2019.04.20 2200 UTC
Wind: from the ESE (110 degrees) at 8 MPH (7 KT):0
Visibility: greater than 7 mile(s):0
Temperature: 64 F (18 C)
Dew Point: 55 F (13 C)
Relative Humidity: 72%
Pressure (altimeter): 29.97 in. Hg (1015 hPa)
ob: SABE 202200Z 11007KT CAVOK 18/13 Q1015 NOSIG
cycle: 22

Station Type Date Time Source
SABE TAF 2019/04/20 18:18 UTC NOAA

TAF SABE 201700Z 2018/2118 11010KT CAVOK TX22/2018Z TN12/2110Z
BECMG 2101/2103 16010KT SCT030

Example: see airport list